Time;durP1;ratioP1;P1;durP2;ratioP2;P2;SDS_P1;SDS_P2;PMS_P1;PMS_P2;Temp;Humidity;BMP_temperature;BMP_pressure;BME280_temperature;BME280_humidity;BME280_pressure;Samples;Min_cycle;Max_cycle;Signal;HPM_P1;HPM_P2
2021/05/31 00:00:43;;;;;;;3.70;3.40;;;11.90;99.90;;;;;;5008195;28;20203;-76
2021/05/31 00:03:08;;;;;;;3.63;3.33;;;11.80;99.90;;;;;;5008197;28;20223;-77
2021/05/31 00:05:34;;;;;;;3.90;3.60;;;11.70;99.90;;;;;;5025763;28;20195;-76
2021/05/31 00:08:00;;;;;;;3.93;3.63;;;11.70;99.90;;;;;;5024960;28;20212;-76
2021/05/31 00:10:25;;;;;;;4.57;4.17;;;11.70;99.90;;;;;;5007899;28;20206;-75
2021/05/31 00:12:52;;;;;;;4.00;3.70;;;11.60;99.90;;;;;;5025995;28;20634;-76
2021/05/31 00:15:18;;;;;;;4.70;4.30;;;11.60;99.90;;;;;;5005514;28;20187;-76
2021/05/31 00:17:43;;;;;;;4.10;3.70;;;11.50;99.90;;;;;;5024582;28;20426;-74
2021/05/31 00:20:11;;;;;;;4.13;3.80;;;11.50;99.90;;;;;;5007973;28;20425;-75
2021/05/31 00:22:38;;;;;;;3.60;3.30;;;11.50;99.90;;;;;;5008036;28;20222;-74
2021/05/31 00:25:06;;;;;;;5.50;3.77;;;11.40;99.90;;;;;;5025833;28;20478;-74
2021/05/31 00:27:32;;;;;;;4.47;4.13;;;11.40;99.90;;;;;;5008757;28;20825;-75
2021/05/31 00:29:57;;;;;;;4.27;3.93;;;11.40;99.90;;;;;;5025566;28;20475;-75
2021/05/31 00:32:23;;;;;;;3.87;3.57;;;11.30;99.90;;;;;;5011546;28;20594;-75
2021/05/31 00:34:48;;;;;;;4.43;4.03;;;11.30;99.90;;;;;;5011707;28;20213;-74
2021/05/31 00:37:16;;;;;;;4.53;4.13;;;11.30;99.90;;;;;;5029019;28;20522;-75
2021/05/31 00:39:41;;;;;;;3.67;3.30;;;11.30;99.90;;;;;;5029106;28;20597;-75
2021/05/31 00:42:07;;;;;;;4.47;3.60;;;11.30;99.90;;;;;;5011202;28;20505;-74
2021/05/31 00:44:33;;;;;;;5.77;3.77;;;11.30;99.90;;;;;;5011648;28;20513;-75
2021/05/31 00:46:58;;;;;;;3.60;3.30;;;11.20;99.90;;;;;;5011287;28;20195;-75
2021/05/31 00:49:27;;;;;;;3.77;3.47;;;11.20;99.90;;;;;;5028823;28;20747;-75
2021/05/31 00:51:54;;;;;;;4.70;3.77;;;11.20;99.90;;;;;;5011207;28;20190;-74
2021/05/31 00:54:20;;;;;;;3.83;3.53;;;11.20;99.90;;;;;;5011554;28;20429;-75
2021/05/31 00:56:47;;;;;;;4.80;3.20;;;11.10;99.90;;;;;;5028771;28;20445;-75
2021/05/31 00:59:13;;;;;;;5.20;4.70;;;11.10;99.90;;;;;;5028833;28;20770;-75
2021/05/31 01:01:40;;;;;;;3.70;3.30;;;11.10;99.90;;;;;;5029185;28;20865;-75
2021/05/31 01:04:06;;;;;;;4.60;4.03;;;11.00;99.90;;;;;;5030653;28;20474;-75
2021/05/31 01:06:35;;;;;;;3.60;3.30;;;11.00;99.90;;;;;;5038684;28;20418;-76
2021/05/31 01:09:05;;;;;;;4.70;3.93;;;11.00;99.90;;;;;;5030880;28;20478;-75
2021/05/31 01:11:33;;;;;;;4.40;4.10;;;11.00;99.90;;;;;;5044375;28;20469;-74
2021/05/31 01:14:16;;;;;;;4.23;3.83;;;10.90;99.90;;;;;;5029698;28;20980;-75
2021/05/31 01:17:12;;;;;;;5.03;4.00;;;10.90;99.90;;;;;;5004928;28;20518;-75
2021/05/31 01:19:53;;;;;;;4.60;4.20;;;10.90;99.90;;;;;;5016014;28;20448;-75
2021/05/31 01:22:29;;;;;;;4.53;4.10;;;10.90;99.90;;;;;;5029082;28;20431;-75
2021/05/31 01:25:05;;;;;;;3.90;3.50;;;10.80;99.90;;;;;;5015543;28;20956;-75
2021/05/31 01:27:56;;;;;;;4.87;4.30;;;10.80;99.90;;;;;;5006072;28;20429;-75
2021/05/31 01:30:23;;;;;;;4.83;4.43;;;10.70;99.90;;;;;;5009828;28;20527;-75
2021/05/31 01:32:54;;;;;;;4.33;4.00;;;10.70;99.90;;;;;;5028185;28;20440;-75
2021/05/31 01:35:31;;;;;;;4.30;3.90;;;10.70;99.90;;;;;;5027999;28;21069;-75
2021/05/31 01:37:59;;;;;;;4.37;3.97;;;10.70;99.90;;;;;;5009959;28;20934;-75
2021/05/31 01:40:24;;;;;;;5.30;3.70;;;10.70;99.90;;;;;;5024208;28;20438;-75
2021/05/31 01:42:57;;;;;;;5.13;4.73;;;10.70;99.90;;;;;;5029275;23;20476;-80
2021/05/31 01:45:23;;;;;;;4.60;4.20;;;10.60;99.90;;;;;;5017551;28;20194;-81
2021/05/31 01:47:49;;;;;;;3.90;3.60;;;10.70;99.90;;;;;;5013677;28;20414;-80
2021/05/31 01:50:16;;;;;;;4.13;3.73;;;10.70;99.90;;;;;;5031360;28;20943;-79
2021/05/31 01:52:43;;;;;;;4.20;3.63;;;10.70;99.90;;;;;;5019126;28;20440;-80
2021/05/31 01:55:13;;;;;;;7.50;4.17;;;10.60;99.90;;;;;;5055553;28;20463;-82
2021/05/31 01:57:39;;;;;;;5.00;3.77;;;10.70;99.90;;;;;;5055268;28;20425;-81
2021/05/31 02:00:06;;;;;;;5.93;3.60;;;10.60;99.90;;;;;;5055244;28;20444;-81
2021/05/31 02:02:32;;;;;;;4.53;4.13;;;10.60;99.90;;;;;;5057193;28;20428;-82
2021/05/31 02:04:58;;;;;;;4.40;4.00;;;10.60;99.90;;;;;;5055652;28;20457;-81
2021/05/31 02:07:23;;;;;;;4.27;3.87;;;10.50;99.90;;;;;;5038041;28;20443;-81
2021/05/31 02:09:49;;;;;;;4.77;4.30;;;10.50;99.90;;;;;;5055968;28;20565;-81
2021/05/31 02:12:17;;;;;;;5.40;3.90;;;10.50;99.90;;;;;;5050050;28;20190;-81
2021/05/31 02:15:00;;;;;;;5.03;4.53;;;10.50;99.90;;;;;;5038801;28;20202;-82
2021/05/31 02:17:36;;;;;;;4.73;4.20;;;10.50;99.90;;;;;;5052867;28;20443;-81
2021/05/31 02:20:10;;;;;;;5.00;4.50;;;10.40;99.90;;;;;;5056108;28;20999;-81
2021/05/31 02:22:48;;;;;;;4.83;4.43;;;10.40;99.90;;;;;;5055848;28;20831;-80
2021/05/31 02:25:15;;;;;;;6.13;3.90;;;10.30;99.90;;;;;;5056120;28;20460;-82
2021/05/31 02:27:46;;;;;;;5.50;5.10;;;10.30;99.90;;;;;;5050227;28;20421;-81
2021/05/31 02:30:15;;;;;;;5.90;5.20;;;10.30;99.90;;;;;;5062950;28;20881;-82
2021/05/31 02:32:58;;;;;;;4.77;4.37;;;10.30;99.90;;;;;;5050797;28;20926;-81
2021/05/31 02:35:25;;;;;;;4.33;3.97;;;10.20;99.90;;;;;;5024217;28;20424;-81
2021/05/31 02:37:51;;;;;;;4.33;3.83;;;10.20;99.90;;;;;;5051097;28;20405;-81
2021/05/31 02:40:18;;;;;;;4.77;4.37;;;10.20;99.90;;;;;;5031778;28;20424;-80
2021/05/31 02:42:47;;;;;;;4.33;3.97;;;10.20;99.90;;;;;;5049740;28;20564;-79
2021/05/31 02:45:14;;;;;;;4.47;4.00;;;10.20;99.90;;;;;;5027362;28;20440;-80
2021/05/31 02:47:40;;;;;;;4.90;4.50;;;10.20;99.90;;;;;;5051970;28;20417;-80
2021/05/31 02:50:06;;;;;;;6.80;4.40;;;10.20;99.90;;;;;;5049398;28;20522;-80
2021/05/31 02:52:32;;;;;;;4.53;4.13;;;10.20;99.90;;;;;;5037431;28;20417;-81
2021/05/31 02:54:58;;;;;;;6.03;4.63;;;10.20;99.90;;;;;;5054912;28;20449;-79
2021/05/31 02:57:24;;;;;;;4.93;4.30;;;10.20;99.90;;;;;;5034941;28;20450;-80
2021/05/31 02:59:52;;;;;;;5.17;4.40;;;10.10;99.90;;;;;;5054592;28;20651;-80
2021/05/31 03:02:17;;;;;;;4.77;4.30;;;10.10;99.90;;;;;;5055527;28;20445;-78
2021/05/31 03:04:43;;;;;;;5.23;4.43;;;10.10;99.90;;;;;;5055506;28;20460;-77
2021/05/31 03:07:08;;;;;;;6.00;4.60;;;10.00;99.90;;;;;;5054671;28;20224;-80
2021/05/31 03:09:34;;;;;;;4.50;4.10;;;10.00;99.90;;;;;;5056996;28;20195;-79
2021/05/31 03:11:59;;;;;;;4.97;4.47;;;10.00;99.90;;;;;;5038723;28;20183;-80
2021/05/31 03:14:25;;;;;;;6.03;4.47;;;10.00;99.90;;;;;;5037049;28;20202;-79
2021/05/31 03:16:51;;;;;;;5.13;4.67;;;9.90;99.90;;;;;;5053151;28;20191;-81
2021/05/31 03:19:16;;;;;;;4.80;4.23;;;9.80;99.90;;;;;;5054213;28;20209;-79
2021/05/31 03:21:42;;;;;;;5.13;4.50;;;9.80;99.90;;;;;;5054408;28;20218;-77
2021/05/31 03:24:07;;;;;;;4.83;4.43;;;9.80;99.90;;;;;;5054758;28;20214;-80
2021/05/31 03:26:33;;;;;;;5.17;4.67;;;9.80;99.90;;;;;;5053677;28;20241;-79
2021/05/31 03:28:59;;;;;;;5.30;4.37;;;9.70;99.90;;;;;;5037419;28;20254;-78
2021/05/31 03:31:24;;;;;;;5.30;4.50;;;9.70;99.90;;;;;;5058558;28;20216;-80
2021/05/31 03:33:50;;;;;;;4.93;4.50;;;9.70;99.90;;;;;;5056664;28;20198;-80
2021/05/31 03:36:15;;;;;;;5.60;4.90;;;9.70;99.90;;;;;;5032821;28;20277;-80
2021/05/31 03:38:41;;;;;;;7.00;4.83;;;9.80;99.90;;;;;;5054018;28;20197;-79
2021/05/31 03:41:06;;;;;;;7.47;6.37;;;9.70;99.90;;;;;;5062931;28;20186;-81
2021/05/31 03:43:32;;;;;;;6.73;5.60;;;9.60;99.90;;;;;;5066434;28;20249;-80
2021/05/31 03:45:57;;;;;;;9.00;6.50;;;9.60;99.90;;;;;;5035040;28;20204;-80
2021/05/31 03:48:23;;;;;;;7.50;6.53;;;9.60;99.90;;;;;;5040787;28;20190;-80
2021/05/31 03:50:49;;;;;;;6.10;5.53;;;9.50;99.90;;;;;;5054248;28;20217;-81
2021/05/31 03:53:14;;;;;;;6.40;5.80;;;9.60;99.90;;;;;;5040289;28;20197;-82
2021/05/31 03:55:40;;;;;;;6.67;6.13;;;9.60;99.90;;;;;;5056828;28;20182;-81
2021/05/31 03:58:08;;;;;;;7.73;6.23;;;9.60;99.90;;;;;;5049753;28;20194;-81
2021/05/31 04:00:33;;;;;;;6.70;6.10;;;9.60;99.90;;;;;;5057051;28;20254;-82
2021/05/31 04:02:59;;;;;;;6.43;5.83;;;9.70;99.90;;;;;;5057443;28;20464;-82
2021/05/31 04:05:29;;;;;;;7.60;6.30;;;9.70;99.90;;;;;;5058577;28;20185;-81
2021/05/31 04:13:24;;;;;;;5.77;5.27;;;9.90;99.90;;;;;;5059864;28;20436;-80
2021/05/31 04:15:49;;;;;;;5.83;5.30;;;9.90;99.90;;;;;;5061446;28;20420;-80
2021/05/31 04:18:15;;;;;;;5.07;4.63;;;9.90;99.90;;;;;;5060114;28;20208;-80
2021/05/31 04:20:41;;;;;;;6.13;4.80;;;10.00;99.90;;;;;;5055213;28;20285;-81
2021/05/31 04:23:06;;;;;;;5.17;4.70;;;10.00;99.90;;;;;;5039241;28;20213;-81
2021/05/31 04:25:32;;;;;;;5.13;4.70;;;10.10;99.90;;;;;;5057939;28;20198;-81
2021/05/31 04:27:57;;;;;;;6.03;4.80;;;10.10;99.90;;;;;;5060329;28;20200;-81
2021/05/31 04:30:23;;;;;;;5.20;4.50;;;10.10;99.90;;;;;;5047528;28;20206;-81
2021/05/31 04:32:49;;;;;;;6.23;5.63;;;10.20;99.90;;;;;;5068443;28;20183;-81
2021/05/31 04:35:15;;;;;;;5.27;4.50;;;10.20;99.90;;;;;;5061257;28;20433;-81
2021/05/31 04:37:41;;;;;;;4.90;4.50;;;10.30;99.90;;;;;;5063434;28;20173;-80
2021/05/31 04:40:07;;;;;;;6.00;5.40;;;10.40;99.90;;;;;;5040164;28;20492;-80
2021/05/31 04:42:33;;;;;;;4.80;4.40;;;10.40;99.90;;;;;;5053416;28;20212;-82
2021/05/31 04:44:59;;;;;;;4.93;4.30;;;10.60;99.90;;;;;;5062370;28;20976;-81
2021/05/31 04:47:25;;;;;;;6.83;6.07;;;10.60;99.90;;;;;;5061402;28;20459;-82
2021/05/31 04:49:51;;;;;;;8.33;4.40;;;10.60;99.90;;;;;;5047196;28;20214;-82
2021/05/31 04:52:17;;;;;;;5.50;4.97;;;10.70;99.90;;;;;;5056734;28;21697;-81
2021/05/31 04:54:43;;;;;;;5.40;5.00;;;10.80;99.90;;;;;;5056207;28;20206;-80
2021/05/31 04:57:09;;;;;;;5.37;4.87;;;10.90;99.90;;;;;;5056455;28;20167;-80
2021/05/31 04:59:34;;;;;;;7.60;5.40;;;11.00;99.90;;;;;;5068563;28;20495;-83
2021/05/31 05:02:00;;;;;;;10.73;4.67;;;11.00;99.90;;;;;;5064646;28;20195;-83
2021/05/31 05:04:26;;;;;;;6.10;5.07;;;11.20;99.90;;;;;;5065849;28;20221;-82
2021/05/31 05:06:51;;;;;;;4.53;4.07;;;11.20;99.90;;;;;;5052153;28;20247;-79
2021/05/31 05:09:17;;;;;;;5.70;4.57;;;11.30;99.90;;;;;;5046752;28;20210;-78
2021/05/31 05:11:42;;;;;;;4.70;4.10;;;11.30;99.90;;;;;;5049816;28;20209;-78
2021/05/31 05:14:08;;;;;;;5.43;3.90;;;11.40;99.90;;;;;;5048335;28;20203;-79
2021/05/31 05:16:33;;;;;;;5.20;4.10;;;11.50;99.90;;;;;;5059365;28;20182;-80
2021/05/31 05:18:59;;;;;;;4.80;4.40;;;11.60;99.90;;;;;;5045118;28;20182;-82
2021/05/31 05:21:25;;;;;;;5.93;3.90;;;11.70;99.90;;;;;;5070502;28;20186;-80
2021/05/31 05:23:50;;;;;;;4.70;4.30;;;11.80;99.90;;;;;;5061006;28;20215;-79
2021/05/31 05:26:20;;;;;;;4.23;3.83;;;11.90;99.90;;;;;;5052216;28;20262;-81
2021/05/31 05:28:47;;;;;;;5.90;4.23;;;12.10;99.90;;;;;;5044928;28;20315;-80
2021/05/31 05:31:13;;;;;;;5.07;4.37;;;12.10;99.90;;;;;;5052749;28;20480;-80
2021/05/31 05:33:42;;;;;;;4.60;4.10;;;12.20;99.90;;;;;;5034976;28;20548;-80
2021/05/31 05:37:00;;;;;;;5.03;4.63;;;12.30;99.90;;;;;;5056594;28;20425;-81
2021/05/31 05:41:48;;;;;;;4.80;4.30;;;12.60;99.90;;;;;;5055467;28;20471;-81
2021/05/31 05:46:49;;;;;;;4.20;3.90;;;12.80;99.90;;;;;;5055041;28;20436;-80
2021/05/31 05:49:15;;;;;;;5.20;4.73;;;12.90;99.90;;;;;;5054564;28;20428;-81
2021/05/31 05:51:40;;;;;;;4.60;4.20;;;13.00;99.90;;;;;;5036370;28;20475;-81
2021/05/31 05:54:06;;;;;;;4.63;3.97;;;13.10;99.90;;;;;;5053885;28;20199;-80
2021/05/31 05:56:33;;;;;;;4.83;3.80;;;13.10;99.90;;;;;;5025095;28;20175;-77
2021/05/31 05:58:59;;;;;;;4.73;3.67;;;13.30;99.90;;;;;;5039025;28;20421;-80
2021/05/31 06:01:25;;;;;;;5.00;4.10;;;13.30;99.90;;;;;;5045330;28;20430;-80
2021/05/31 06:03:52;;;;;;;5.17;4.40;;;13.40;99.90;;;;;;5051673;28;20456;-81
2021/05/31 06:06:22;;;;;;;4.67;4.27;;;13.60;99.90;;;;;;5046906;28;20465;-80
2021/05/31 06:08:48;;;;;;;4.43;3.87;;;13.70;99.90;;;;;;5035237;28;20489;-80
2021/05/31 06:11:13;;;;;;;3.90;3.50;;;13.80;99.90;;;;;;5058671;28;20538;-79
2021/05/31 06:13:42;;;;;;;5.70;5.10;;;13.80;99.90;;;;;;5031390;28;20481;-80
2021/05/31 06:16:09;;;;;;;3.80;3.27;;;13.90;99.90;;;;;;5047997;28;20178;-79
2021/05/31 06:18:35;;;;;;;4.87;4.43;;;14.00;99.90;;;;;;5048208;28;20440;-80
2021/05/31 06:21:00;;;;;;;4.00;3.60;;;14.00;99.90;;;;;;5049926;28;20797;-80
2021/05/31 06:23:26;;;;;;;3.80;3.50;;;14.10;99.90;;;;;;5048287;28;20198;-79
2021/05/31 06:25:52;;;;;;;5.77;4.03;;;14.30;99.90;;;;;;5050876;28;20670;-78
2021/05/31 06:28:17;;;;;;;4.13;3.73;;;14.30;99.90;;;;;;5041685;28;20221;-77
2021/05/31 06:30:43;;;;;;;4.53;4.13;;;14.40;99.90;;;;;;5045545;28;20214;-76
2021/05/31 06:33:10;;;;;;;4.10;3.70;;;14.50;99.90;;;;;;5043962;28;20208;-81
2021/05/31 06:35:36;;;;;;;3.80;2.97;;;14.60;99.90;;;;;;5049941;28;20178;-78
2021/05/31 06:38:03;;;;;;;4.33;3.80;;;14.70;99.90;;;;;;5026157;28;20788;-78
2021/05/31 06:40:28;;;;;;;4.70;3.53;;;14.70;99.90;;;;;;5036632;28;20455;-79
2021/05/31 06:42:56;;;;;;;5.90;3.60;;;14.80;99.90;;;;;;5057273;28;20783;-81
2021/05/31 06:45:24;;;;;;;3.97;3.67;;;14.90;99.90;;;;;;5042380;28;20221;-78
2021/05/31 06:48:10;;;;;;;4.00;3.60;;;15.00;99.90;;;;;;5043883;28;20433;-78
2021/05/31 06:50:36;;;;;;;3.97;3.67;;;15.10;99.90;;;;;;5039783;28;20469;-79
2021/05/31 06:53:03;;;;;;;4.83;3.67;;;15.20;99.90;;;;;;5047656;28;20437;-78
2021/05/31 06:55:33;;;;;;;3.53;3.23;;;15.30;99.90;;;;;;5042278;28;20966;-79
2021/05/31 06:57:59;;;;;;;7.80;3.90;;;15.50;99.90;;;;;;5028004;28;20433;-80
2021/05/31 07:00:26;;;;;;;11.30;5.17;;;15.60;99.90;;;;;;5027362;28;20474;-79
2021/05/31 07:02:52;;;;;;;3.50;3.23;;;15.60;99.90;;;;;;5041517;28;20571;-78
2021/05/31 07:05:19;;;;;;;3.00;2.50;;;15.70;99.90;;;;;;5041872;28;20452;-78
2021/05/31 07:07:44;;;;;;;4.30;3.90;;;15.70;99.90;;;;;;5021308;28;20681;-75
2021/05/31 07:10:12;;;;;;;3.40;3.10;;;15.80;99.90;;;;;;5046647;28;20464;-78
2021/05/31 07:12:39;;;;;;;3.93;3.27;;;15.90;99.90;;;;;;5035075;28;20340;-77
2021/05/31 07:15:06;;;;;;;4.10;3.70;;;16.00;99.90;;;;;;5055153;28;20979;-79
2021/05/31 07:17:33;;;;;;;3.47;3.20;;;16.10;99.90;;;;;;5055205;28;20460;-77
2021/05/31 07:19:59;;;;;;;4.10;3.30;;;16.20;99.90;;;;;;5057967;28;20425;-76
2021/05/31 07:22:26;;;;;;;4.90;3.70;;;16.30;99.90;;;;;;5053486;28;20448;-80
2021/05/31 07:24:52;;;;;;;4.23;2.70;;;16.30;99.90;;;;;;5046676;28;20847;-77
2021/05/31 07:27:18;;;;;;;3.53;3.23;;;16.40;99.90;;;;;;5040593;28;20453;-78
2021/05/31 07:29:44;;;;;;;3.10;2.90;;;16.40;99.90;;;;;;5046572;28;20417;-80
2021/05/31 07:32:10;;;;;;;3.47;3.17;;;16.50;99.90;;;;;;5036292;28;20953;-77
2021/05/31 07:34:36;;;;;;;4.17;3.33;;;16.60;99.90;;;;;;5045137;28;20198;-77
2021/05/31 07:37:01;;;;;;;2.90;2.70;;;16.70;99.90;;;;;;5029237;28;20435;-79
2021/05/31 07:39:27;;;;;;;3.47;3.17;;;16.80;99.90;;;;;;5035531;28;20182;-79
2021/05/31 07:41:53;;;;;;;6.03;3.50;;;16.90;99.90;;;;;;5035292;28;20190;-78
2021/05/31 07:44:19;;;;;;;3.13;2.90;;;16.90;99.90;;;;;;5054040;28;20693;-77
2021/05/31 07:46:44;;;;;;;6.43;4.03;;;17.00;99.90;;;;;;5053110;28;20193;-76
2021/05/31 07:49:10;;;;;;;3.13;2.90;;;17.10;99.90;;;;;;5051604;28;20194;-77
2021/05/31 07:51:41;;;;;;;3.17;2.30;;;17.20;99.90;;;;;;5052272;28;20267;-79
2021/05/31 07:54:07;;;;;;;4.10;2.70;;;17.30;99.90;;;;;;5032652;28;20209;-77
2021/05/31 07:56:32;;;;;;;3.10;2.80;;;17.40;99.90;;;;;;5018774;28;20438;-80
2021/05/31 07:58:58;;;;;;;3.17;2.87;;;17.40;99.90;;;;;;5028174;28;20187;-78
2021/05/31 08:01:24;;;;;;;4.07;3.03;;;17.50;99.90;;;;;;5047247;28;20297;-77
2021/05/31 08:03:50;;;;;;;2.77;2.50;;;17.70;99.90;;;;;;5045789;28;20702;-78
2021/05/31 08:06:16;;;;;;;3.47;3.17;;;17.70;99.90;;;;;;5053496;28;20412;-79
2021/05/31 08:08:44;;;;;;;2.20;2.00;;;17.70;99.90;;;;;;5048513;28;20824;-79
2021/05/31 08:11:11;;;;;;;2.93;2.33;;;17.90;98.30;;;;;;5030756;28;20207;-77
2021/05/31 08:13:37;;;;;;;2.97;2.67;;;17.80;96.40;;;;;;5035320;28;20531;-77
2021/05/31 08:16:04;;;;;;;3.63;2.77;;;17.90;97.00;;;;;;5053742;28;20903;-77
2021/05/31 08:18:31;;;;;;;3.40;2.60;;;17.90;97.10;;;;;;5052902;28;20890;-77
2021/05/31 08:20:57;;;;;;;2.20;2.00;;;17.90;94.60;;;;;;5051601;28;20523;-80
2021/05/31 08:23:23;;;;;;;3.40;3.10;;;17.90;95.30;;;;;;5037215;28;20285;-77
2021/05/31 08:25:48;;;;;;;3.33;3.13;;;18.00;94.30;;;;;;5051982;28;20524;-78
2021/05/31 08:28:14;;;;;;;3.03;2.80;;;18.00;94.10;;;;;;5052494;28;20550;-78
2021/05/31 08:30:42;;;;;;;2.80;2.50;;;18.00;94.10;;;;;;5049856;28;20643;-78
2021/05/31 08:33:08;;;;;;;2.90;2.70;;;18.00;94.80;;;;;;5035588;28;20198;-77
2021/05/31 08:35:35;;;;;;;3.33;2.43;;;18.20;93.30;;;;;;5036571;28;20453;-78
2021/05/31 08:38:01;;;;;;;6.47;3.03;;;18.20;93.00;;;;;;5055561;28;20447;-78
2021/05/31 08:40:26;;;;;;;2.60;2.40;;;18.30;92.20;;;;;;5054738;28;20436;-79
2021/05/31 08:42:52;;;;;;;3.20;2.70;;;18.30;92.20;;;;;;5052508;28;20670;-79
2021/05/31 08:45:24;;;;;;;3.20;2.90;;;18.40;93.10;;;;;;5034829;28;20670;-81
2021/05/31 08:47:52;;;;;;;4.00;2.70;;;18.40;93.60;;;;;;5057483;28;20189;-81
2021/05/31 08:50:25;;;;;;;2.73;2.53;;;18.30;94.00;;;;;;5034686;28;20510;-80
2021/05/31 08:52:52;;;;;;;3.07;2.80;;;18.50;93.10;;;;;;5033049;28;20440;-80
2021/05/31 08:55:20;;;;;;;2.80;2.60;;;18.40;93.70;;;;;;5037807;28;20433;-79
2021/05/31 08:57:47;;;;;;;2.60;2.40;;;18.50;94.00;;;;;;5056629;28;20429;-79
2021/05/31 09:00:16;;;;;;;3.03;2.60;;;18.60;93.80;;;;;;5060995;28;20453;-79
2021/05/31 09:02:42;;;;;;;3.90;2.80;;;18.70;93.80;;;;;;5054291;28;20839;-79
2021/05/31 09:05:08;;;;;;;2.93;2.53;;;18.80;92.50;;;;;;5066835;28;20632;-81
2021/05/31 09:07:34;;;;;;;3.20;2.90;;;18.80;92.00;;;;;;5071767;28;20452;-81
2021/05/31 09:10:01;;;;;;;2.57;2.37;;;18.90;91.30;;;;;;5061661;28;20468;-79
2021/05/31 09:12:32;;;;;;;3.13;2.80;;;18.90;91.60;;;;;;5032294;28;20182;-80
2021/05/31 09:15:05;;;;;;;3.83;3.40;;;18.90;91.70;;;;;;5057009;28;20822;-80
2021/05/31 09:17:33;;;;;;;2.70;2.50;;;18.90;90.70;;;;;;5056327;28;20459;-80
2021/05/31 09:19:59;;;;;;;3.13;2.60;;;19.00;91.70;;;;;;5065135;28;20420;-79
2021/05/31 09:22:26;;;;;;;3.30;3.00;;;19.10;91.60;;;;;;5067735;28;20450;-80
2021/05/31 09:24:54;;;;;;;4.30;3.00;;;19.20;92.00;;;;;;5050761;28;20460;-81
2021/05/31 09:27:19;;;;;;;3.83;3.00;;;19.30;90.90;;;;;;5061348;28;20429;-81
2021/05/31 09:29:54;;;;;;;4.07;3.17;;;19.40;90.40;;;;;;5055935;28;20478;-79
2021/05/31 09:32:20;;;;;;;3.20;3.00;;;19.30;90.10;;;;;;5052749;28;20190;-81
2021/05/31 09:34:57;;;;;;;3.07;2.87;;;19.30;89.40;;;;;;5060379;28;20447;-80
2021/05/31 09:37:23;;;;;;;3.10;2.77;;;19.20;87.90;;;;;;5070035;28;20203;-80
2021/05/31 09:40:04;;;;;;;3.30;3.00;;;19.20;90.40;;;;;;5059414;28;21224;-79
2021/05/31 09:42:31;;;;;;;2.90;2.70;;;19.30;90.60;;;;;;5037812;28;20596;-79
2021/05/31 09:45:07;;;;;;;4.20;2.90;;;19.30;90.80;;;;;;5027375;28;20465;-80
2021/05/31 09:47:35;;;;;;;3.30;3.00;;;19.40;91.20;;;;;;5049292;28;20433;-80
2021/05/31 09:50:03;;;;;;;2.90;2.70;;;19.50;90.80;;;;;;5033532;28;20520;-78
2021/05/31 09:52:28;;;;;;;3.40;3.10;;;19.40;90.40;;;;;;5038523;28;20493;-80
2021/05/31 09:54:54;;;;;;;4.43;3.30;;;19.40;90.90;;;;;;5036375;28;20514;-79
2021/05/31 09:57:28;;;;;;;3.43;3.13;;;19.60;91.00;;;;;;5058689;28;20282;-77
2021/05/31 09:59:57;;;;;;;4.80;3.30;;;19.70;91.30;;;;;;5044368;28;20210;-79
2021/05/31 10:02:42;;;;;;;3.17;2.87;;;19.60;90.60;;;;;;5028602;28;20788;-80
2021/05/31 10:08:27;;;;;;;3.00;2.80;;;19.80;91.10;;;;;;5038301;28;20431;-79
2021/05/31 10:10:43;;;;;;;5.03;2.80;;;19.80;90.20;;;;;;5045545;28;20995;-79
2021/05/31 10:13:09;;;;;;;2.80;2.60;;;20.00;90.20;;;;;;5060570;28;20452;-81
2021/05/31 10:15:40;;;;;;;3.87;3.30;;;20.00;89.90;;;;;;5067780;28;20448;-81
2021/05/31 10:18:07;;;;;;;3.37;3.07;;;20.00;90.70;;;;;;5070248;28;20429;-80
2021/05/31 10:20:34;;;;;;;4.13;3.10;;;20.00;90.50;;;;;;5066889;28;20425;-82
2021/05/31 10:23:00;;;;;;;3.60;3.20;;;20.00;88.90;;;;;;5042148;28;20975;-79
2021/05/31 10:25:28;;;;;;;3.27;3.07;;;19.90;90.20;;;;;;5035155;28;20431;-82
2021/05/31 10:27:55;;;;;;;3.37;3.13;;;20.00;88.80;;;;;;5049930;28;20178;-80
2021/05/31 10:30:21;;;;;;;3.33;2.80;;;20.00;88.40;;;;;;5049819;28;20469;-79
2021/05/31 10:32:48;;;;;;;3.13;2.93;;;20.20;86.10;;;;;;5055330;28;20436;-80
2021/05/31 10:35:17;;;;;;;4.43;3.07;;;20.30;82.50;;;;;;5059317;28;20409;-79
2021/05/31 10:38:00;;;;;;;3.13;2.83;;;20.30;84.80;;;;;;5041277;28;20537;-79
2021/05/31 10:40:33;;;;;;;2.70;2.50;;;20.40;83.70;;;;;;5037232;28;21039;-80
2021/05/31 10:43:03;;;;;;;3.10;2.90;;;20.30;82.50;;;;;;5056887;28;21028;-81
2021/05/31 10:45:30;;;;;;;2.97;2.67;;;20.40;81.30;;;;;;5053712;28;20413;-79
2021/05/31 10:48:00;;;;;;;4.07;2.97;;;20.30;81.00;;;;;;5064009;28;20440;-80
2021/05/31 10:50:30;;;;;;;2.37;2.20;;;20.30;81.30;;;;;;5049616;28;20465;-80
2021/05/31 10:52:56;;;;;;;3.43;2.50;;;20.40;84.90;;;;;;5032910;28;20449;-78
2021/05/31 10:55:23;;;;;;;3.30;3.00;;;20.50;80.00;;;;;;5047290;28;20550;-80
2021/05/31 10:57:48;;;;;;;3.33;3.03;;;20.60;79.80;;;;;;5045666;28;20425;-79
2021/05/31 11:00:39;;;;;;;2.70;2.40;;;20.70;76.90;;;;;;5054193;28;20417;-80
2021/05/31 11:03:12;;;;;;;2.90;2.17;;;20.60;77.70;;;;;;5031732;28;20201;-80
2021/05/31 11:05:39;;;;;;;2.87;2.67;;;20.70;77.10;;;;;;5052401;28;20416;-80
2021/05/31 11:08:08;;;;;;;2.83;2.60;;;20.80;77.50;;;;;;5029109;28;20431;-78
2021/05/31 11:10:36;;;;;;;4.00;2.60;;;20.90;76.90;;;;;;5040931;28;20469;-80
2021/05/31 11:13:13;;;;;;;3.57;3.27;;;20.90;76.40;;;;;;5031162;28;20474;-79
2021/05/31 11:15:39;;;;;;;3.13;2.50;;;21.00;74.00;;;;;;5028842;28;20432;-80
2021/05/31 11:18:05;;;;;;;5.13;2.60;;;21.00;72.30;;;;;;5060695;28;20478;-80
2021/05/31 11:20:32;;;;;;;3.03;2.40;;;20.90;72.40;;;;;;5065927;28;20209;-80
2021/05/31 11:23:03;;;;;;;2.40;2.30;;;21.00;73.80;;;;;;5065259;28;20214;-80
2021/05/31 11:25:31;;;;;;;3.40;3.10;;;21.10;75.60;;;;;;5043725;28;20441;-80
2021/05/31 11:28:04;;;;;;;3.13;2.90;;;21.10;75.00;;;;;;5057555;28;20439;-79
2021/05/31 11:30:32;;;;;;;2.80;2.60;;;21.20;74.30;;;;;;5051657;28;20486;-80
2021/05/31 11:33:00;;;;;;;3.00;2.70;;;21.40;74.10;;;;;;5054488;28;20437;-80
2021/05/31 11:35:28;;;;;;;2.80;2.60;;;21.40;71.70;;;;;;5047241;28;20538;-80
2021/05/31 11:37:55;;;;;;;4.70;2.80;;;21.50;73.40;;;;;;5053180;28;20417;-80
2021/05/31 11:40:28;;;;;;;3.13;2.80;;;21.60;70.90;;;;;;5050867;28;20417;-80
2021/05/31 11:43:01;;;;;;;2.80;2.60;;;21.70;69.90;;;;;;5047926;28;20481;-79
2021/05/31 11:45:32;;;;;;;2.87;2.57;;;21.80;70.80;;;;;;5053159;28;20474;-81
2021/05/31 11:48:04;;;;;;;3.37;2.93;;;21.80;66.90;;;;;;5034989;28;20429;-82
2021/05/31 11:50:33;;;;;;;3.40;2.47;;;21.80;67.50;;;;;;5052224;28;20852;-80
2021/05/31 11:52:59;;;;;;;2.73;2.53;;;21.90;65.00;;;;;;5034361;28;20444;-79
2021/05/31 11:55:27;;;;;;;2.10;2.00;;;22.20;65.40;;;;;;5045344;28;20425;-80
2021/05/31 11:57:54;;;;;;;2.60;2.40;;;22.40;66.30;;;;;;5046384;28;20190;-79
2021/05/31 12:00:21;;;;;;;2.30;2.10;;;22.60;66.10;;;;;;5035126;28;20433;-77
2021/05/31 12:02:48;;;;;;;2.53;2.33;;;22.90;64.70;;;;;;5053209;28;20420;-81
2021/05/31 12:05:14;;;;;;;2.43;2.23;;;23.40;65.20;;;;;;5043440;28;20506;-81
2021/05/31 12:07:45;;;;;;;2.60;2.40;;;24.30;65.00;;;;;;5047451;28;20441;-80
2021/05/31 12:10:12;;;;;;;3.10;2.80;;;25.30;64.90;;;;;;5050179;28;20457;-82
2021/05/31 12:12:39;;;;;;;2.30;2.10;;;26.30;60.30;;;;;;5052532;28;20493;-81
2021/05/31 12:15:05;;;;;;;2.63;2.43;;;26.90;59.70;;;;;;5034889;28;20500;-80
2021/05/31 12:17:32;;;;;;;2.47;2.30;;;27.70;57.80;;;;;;5052922;28;20428;-80
2021/05/31 12:19:58;;;;;;;2.27;2.07;;;28.00;56.40;;;;;;5051186;28;20432;-81
2021/05/31 12:22:28;;;;;;;1.97;1.87;;;28.20;55.50;;;;;;5053053;28;20470;-82
2021/05/31 12:24:56;;;;;;;2.63;2.43;;;29.00;54.30;;;;;;5072175;28;20503;-82
2021/05/31 12:27:28;;;;;;;2.43;2.23;;;29.20;52.80;;;;;;5074117;28;20887;-82
2021/05/31 12:29:54;;;;;;;2.90;2.20;;;29.90;53.10;;;;;;5071521;28;20428;-83
2021/05/31 12:32:25;;;;;;;2.53;2.37;;;29.20;49.80;;;;;;5072977;28;20541;-81
2021/05/31 12:34:51;;;;;;;2.33;2.10;;;29.30;49.70;;;;;;5065967;28;20437;-82
2021/05/31 12:37:23;;;;;;;2.60;2.40;;;28.90;48.00;;;;;;5061320;28;20469;-79
2021/05/31 12:39:51;;;;;;;2.70;2.50;;;28.50;49.20;;;;;;5054586;28;20778;-81
2021/05/31 12:42:21;;;;;;;2.67;2.20;;;28.50;50.50;;;;;;5056428;28;20412;-80
2021/05/31 12:44:47;;;;;;;2.70;2.30;;;29.10;49.50;;;;;;5058892;28;20444;-82
2021/05/31 12:47:15;;;;;;;2.63;2.30;;;29.00;47.20;;;;;;5055955;28;21085;-79
2021/05/31 12:49:49;;;;;;;2.60;2.40;;;28.90;48.10;;;;;;5050972;28;20296;-80
2021/05/31 12:52:26;;;;;;;2.30;2.20;;;28.50;47.30;;;;;;5056063;28;20432;-81
2021/05/31 12:55:25;;;;;;;5.77;2.30;;;28.60;46.40;;;;;;5056258;28;20475;-79
2021/05/31 12:57:51;;;;;;;3.80;2.70;;;28.50;47.60;;;;;;5054205;28;20420;-81
2021/05/31 13:00:22;;;;;;;2.80;2.60;;;29.10;49.10;;;;;;5055018;28;20491;-81
2021/05/31 13:02:52;;;;;;;2.70;2.33;;;29.50;47.00;;;;;;5056047;28;20939;-81
2021/05/31 13:05:20;;;;;;;3.63;2.47;;;29.20;46.50;;;;;;5039011;28;20448;-82